sensor_id;sensor_type;location;lat;lon;timestamp;P1;durP1;ratioP1;P2;durP2;ratioP2
31298;SDS011;17927;52.350;13.402;2023-07-20T00:00:14;3.05;;;2.20;;
31298;SDS011;17927;52.350;13.402;2023-07-20T00:02:40;2.50;;;2.25;;
31298;SDS011;17927;52.350;13.402;2023-07-20T00:05:05;3.55;;;2.42;;
31298;SDS011;17927;52.350;13.402;2023-07-20T00:07:31;2.28;;;2.10;;
31298;SDS011;17927;52.350;13.402;2023-07-20T00:09:56;4.00;;;2.30;;
31298;SDS011;17927;52.350;13.402;2023-07-20T00:12:22;3.90;;;2.45;;
31298;SDS011;17927;52.350;13.402;2023-07-20T00:14:47;4.07;;;2.50;;
31298;SDS011;17927;52.350;13.402;2023-07-20T00:17:12;2.53;;;2.33;;
31298;SDS011;17927;52.350;13.402;2023-07-20T00:19:37;5.47;;;2.35;;
31298;SDS011;17927;52.350;13.402;2023-07-20T00:22:03;4.82;;;2.80;;
31298;SDS011;17927;52.350;13.402;2023-07-20T00:24:29;3.28;;;2.30;;
31298;SDS011;17927;52.350;13.402;2023-07-20T00:26:55;3.03;;;2.67;;
31298;SDS011;17927;52.350;13.402;2023-07-20T00:29:20;2.78;;;2.50;;
31298;SDS011;17927;52.350;13.402;2023-07-20T00:31:45;4.65;;;2.50;;
31298;SDS011;17927;52.350;13.402;2023-07-20T00:34:11;4.05;;;2.60;;
31298;SDS011;17927;52.350;13.402;2023-07-20T00:36:36;2.38;;;2.28;;
31298;SDS011;17927;52.350;13.402;2023-07-20T00:39:02;3.13;;;2.65;;
31298;SDS011;17927;52.350;13.402;2023-07-20T00:41:28;4.97;;;2.67;;
31298;SDS011;17927;52.350;13.402;2023-07-20T00:43:54;2.42;;;2.33;;
31298;SDS011;17927;52.350;13.402;2023-07-20T00:46:20;4.82;;;2.63;;
31298;SDS011;17927;52.350;13.402;2023-07-20T00:48:48;4.47;;;2.25;;
31298;SDS011;17927;52.350;13.402;2023-07-20T00:51:13;3.17;;;2.78;;
31298;SDS011;17927;52.350;13.402;2023-07-20T00:53:38;4.80;;;2.50;;
31298;SDS011;17927;52.350;13.402;2023-07-20T00:56:04;3.05;;;2.60;;
31298;SDS011;17927;52.350;13.402;2023-07-20T00:58:30;4.22;;;3.00;;
31298;SDS011;17927;52.350;13.402;2023-07-20T01:00:55;5.20;;;2.40;;
31298;SDS011;17927;52.350;13.402;2023-07-20T01:03:20;3.92;;;2.55;;
31298;SDS011;17927;52.350;13.402;2023-07-20T01:11:37;3.97;;;3.15;;
31298;SDS011;17927;52.350;13.402;2023-07-20T01:14:16;5.88;;;3.28;;
31298;SDS011;17927;52.350;13.402;2023-07-20T01:16:42;3.33;;;3.03;;
31298;SDS011;17927;52.350;13.402;2023-07-20T01:19:07;4.47;;;2.80;;
31298;SDS011;17927;52.350;13.402;2023-07-20T01:21:53;3.88;;;2.78;;
31298;SDS011;17927;52.350;13.402;2023-07-20T01:30:16;6.13;;;3.17;;
31298;SDS011;17927;52.350;13.402;2023-07-20T01:32:46;3.28;;;2.97;;
31298;SDS011;17927;52.350;13.402;2023-07-20T01:35:13;3.85;;;3.55;;
31298;SDS011;17927;52.350;13.402;2023-07-20T01:37:41;3.95;;;3.70;;
31298;SDS011;17927;52.350;13.402;2023-07-20T01:40:10;8.43;;;3.10;;
31298;SDS011;17927;52.350;13.402;2023-07-20T01:42:35;10.50;;;3.50;;
31298;SDS011;17927;52.350;13.402;2023-07-20T01:45:01;8.88;;;3.42;;
31298;SDS011;17927;52.350;13.402;2023-07-20T01:47:26;4.22;;;3.63;;
31298;SDS011;17927;52.350;13.402;2023-07-20T01:49:51;3.72;;;3.42;;
31298;SDS011;17927;52.350;13.402;2023-07-20T01:52:17;8.25;;;3.97;;
31298;SDS011;17927;52.350;13.402;2023-07-20T01:54:42;7.72;;;4.53;;
31298;SDS011;17927;52.350;13.402;2023-07-20T01:57:07;9.25;;;3.40;;
31298;SDS011;17927;52.350;13.402;2023-07-20T01:59:33;4.40;;;3.35;;
31298;SDS011;17927;52.350;13.402;2023-07-20T02:01:58;8.00;;;4.15;;
31298;SDS011;17927;52.350;13.402;2023-07-20T02:04:23;4.40;;;3.00;;
31298;SDS011;17927;52.350;13.402;2023-07-20T02:06:48;3.60;;;3.25;;
31298;SDS011;17927;52.350;13.402;2023-07-20T02:09:14;5.15;;;3.80;;
31298;SDS011;17927;52.350;13.402;2023-07-20T02:11:39;4.78;;;3.88;;
31298;SDS011;17927;52.350;13.402;2023-07-20T02:14:04;5.28;;;2.90;;
31298;SDS011;17927;52.350;13.402;2023-07-20T02:16:29;3.10;;;2.90;;
31298;SDS011;17927;52.350;13.402;2023-07-20T02:18:55;4.30;;;3.08;;
31298;SDS011;17927;52.350;13.402;2023-07-20T02:21:21;5.60;;;3.40;;
31298;SDS011;17927;52.350;13.402;2023-07-20T02:23:48;4.47;;;3.55;;
31298;SDS011;17927;52.350;13.402;2023-07-20T02:26:13;5.72;;;3.42;;
31298;SDS011;17927;52.350;13.402;2023-07-20T02:28:39;4.43;;;3.40;;
31298;SDS011;17927;52.350;13.402;2023-07-20T02:31:04;3.42;;;3.22;;
31298;SDS011;17927;52.350;13.402;2023-07-20T02:33:29;4.07;;;3.30;;
31298;SDS011;17927;52.350;13.402;2023-07-20T02:35:54;6.03;;;4.75;;
31298;SDS011;17927;52.350;13.402;2023-07-20T02:38:20;3.70;;;3.40;;
31298;SDS011;17927;52.350;13.402;2023-07-20T02:40:45;4.03;;;3.60;;
31298;SDS011;17927;52.350;13.402;2023-07-20T02:43:10;6.40;;;3.80;;
31298;SDS011;17927;52.350;13.402;2023-07-20T02:45:39;6.03;;;3.58;;
31298;SDS011;17927;52.350;13.402;2023-07-20T02:48:05;6.05;;;4.20;;
31298;SDS011;17927;52.350;13.402;2023-07-20T02:50:33;6.28;;;3.83;;
31298;SDS011;17927;52.350;13.402;2023-07-20T02:52:58;3.88;;;3.58;;
31298;SDS011;17927;52.350;13.402;2023-07-20T02:55:23;4.00;;;3.70;;
31298;SDS011;17927;52.350;13.402;2023-07-20T02:57:48;4.00;;;3.60;;
31298;SDS011;17927;52.350;13.402;2023-07-20T03:00:14;4.63;;;3.75;;
31298;SDS011;17927;52.350;13.402;2023-07-20T03:02:41;8.60;;;3.95;;
31298;SDS011;17927;52.350;13.402;2023-07-20T03:05:06;4.50;;;3.65;;
31298;SDS011;17927;52.350;13.402;2023-07-20T03:07:32;6.95;;;3.80;;
31298;SDS011;17927;52.350;13.402;2023-07-20T03:09:57;5.57;;;4.53;;
31298;SDS011;17927;52.350;13.402;2023-07-20T03:12:22;9.15;;;4.15;;
31298;SDS011;17927;52.350;13.402;2023-07-20T03:14:49;7.90;;;3.92;;
31298;SDS011;17927;52.350;13.402;2023-07-20T03:17:14;10.85;;;4.05;;
31298;SDS011;17927;52.350;13.402;2023-07-20T03:19:39;8.52;;;4.05;;
31298;SDS011;17927;52.350;13.402;2023-07-20T03:22:05;4.72;;;4.07;;
31298;SDS011;17927;52.350;13.402;2023-07-20T03:24:30;4.38;;;4.05;;
31298;SDS011;17927;52.350;13.402;2023-07-20T03:26:55;10.32;;;4.43;;
31298;SDS011;17927;52.350;13.402;2023-07-20T03:29:21;5.35;;;4.00;;
31298;SDS011;17927;52.350;13.402;2023-07-20T03:31:46;6.72;;;4.55;;
31298;SDS011;17927;52.350;13.402;2023-07-20T03:34:11;7.47;;;5.13;;
31298;SDS011;17927;52.350;13.402;2023-07-20T03:36:36;4.72;;;4.38;;
31298;SDS011;17927;52.350;13.402;2023-07-20T03:39:01;5.15;;;4.80;;
31298;SDS011;17927;52.350;13.402;2023-07-20T03:41:28;5.82;;;5.32;;
31298;SDS011;17927;52.350;13.402;2023-07-20T03:43:53;7.88;;;6.47;;
31298;SDS011;17927;52.350;13.402;2023-07-20T03:46:18;14.73;;;11.25;;
31298;SDS011;17927;52.350;13.402;2023-07-20T03:48:43;14.77;;;11.70;;
31298;SDS011;17927;52.350;13.402;2023-07-20T03:51:09;8.23;;;7.53;;
31298;SDS011;17927;52.350;13.402;2023-07-20T03:53:34;9.65;;;7.53;;
31298;SDS011;17927;52.350;13.402;2023-07-20T03:55:59;7.75;;;7.15;;
31298;SDS011;17927;52.350;13.402;2023-07-20T03:58:24;9.18;;;8.30;;
31298;SDS011;17927;52.350;13.402;2023-07-20T04:00:50;7.20;;;6.50;;
31298;SDS011;17927;52.350;13.402;2023-07-20T04:03:16;9.75;;;6.75;;
31298;SDS011;17927;52.350;13.402;2023-07-20T04:05:45;7.70;;;6.35;;
31298;SDS011;17927;52.350;13.402;2023-07-20T04:08:11;7.85;;;7.10;;
31298;SDS011;17927;52.350;13.402;2023-07-20T04:10:36;7.40;;;6.70;;
31298;SDS011;17927;52.350;13.402;2023-07-20T04:13:02;9.20;;;7.90;;
31298;SDS011;17927;52.350;13.402;2023-07-20T04:15:28;7.18;;;6.68;;
31298;SDS011;17927;52.350;13.402;2023-07-20T04:17:53;7.10;;;6.60;;
31298;SDS011;17927;52.350;13.402;2023-07-20T04:20:18;9.93;;;7.30;;
31298;SDS011;17927;52.350;13.402;2023-07-20T04:22:44;8.75;;;6.78;;
31298;SDS011;17927;52.350;13.402;2023-07-20T04:25:09;7.88;;;7.28;;
31298;SDS011;17927;52.350;13.402;2023-07-20T04:27:35;7.93;;;7.35;;
31298;SDS011;17927;52.350;13.402;2023-07-20T04:30:00;8.52;;;7.53;;
31298;SDS011;17927;52.350;13.402;2023-07-20T04:32:26;7.78;;;7.07;;
31298;SDS011;17927;52.350;13.402;2023-07-20T04:34:52;9.10;;;7.53;;
31298;SDS011;17927;52.350;13.402;2023-07-20T04:37:17;10.40;;;7.30;;
31298;SDS011;17927;52.350;13.402;2023-07-20T04:39:42;7.93;;;7.10;;
31298;SDS011;17927;52.350;13.402;2023-07-20T04:42:08;7.57;;;7.00;;
31298;SDS011;17927;52.350;13.402;2023-07-20T04:44:33;9.20;;;7.88;;
31298;SDS011;17927;52.350;13.402;2023-07-20T04:46:58;7.68;;;7.07;;
31298;SDS011;17927;52.350;13.402;2023-07-20T04:49:23;8.93;;;8.15;;
31298;SDS011;17927;52.350;13.402;2023-07-20T04:51:49;13.00;;;8.20;;
31298;SDS011;17927;52.350;13.402;2023-07-20T04:54:14;7.82;;;7.22;;
31298;SDS011;17927;52.350;13.402;2023-07-20T04:56:41;7.72;;;7.22;;
31298;SDS011;17927;52.350;13.402;2023-07-20T04:59:06;10.70;;;7.93;;
31298;SDS011;17927;52.350;13.402;2023-07-20T05:01:31;8.80;;;7.55;;
31298;SDS011;17927;52.350;13.402;2023-07-20T05:03:57;10.77;;;7.75;;
31298;SDS011;17927;52.350;13.402;2023-07-20T05:06:22;8.68;;;7.32;;
31298;SDS011;17927;52.350;13.402;2023-07-20T05:08:47;8.57;;;7.80;;
31298;SDS011;17927;52.350;13.402;2023-07-20T05:11:12;8.57;;;7.00;;
31298;SDS011;17927;52.350;13.402;2023-07-20T05:13:38;7.93;;;7.22;;
31298;SDS011;17927;52.350;13.402;2023-07-20T05:16:03;8.45;;;7.65;;
31298;SDS011;17927;52.350;13.402;2023-07-20T05:18:29;7.57;;;6.78;;
31298;SDS011;17927;52.350;13.402;2023-07-20T05:20:54;9.50;;;7.55;;
31298;SDS011;17927;52.350;13.402;2023-07-20T05:23:21;8.60;;;6.93;;
31298;SDS011;17927;52.350;13.402;2023-07-20T05:25:46;8.70;;;7.10;;
31298;SDS011;17927;52.350;13.402;2023-07-20T05:28:12;9.25;;;6.90;;
31298;SDS011;17927;52.350;13.402;2023-07-20T05:30:37;8.13;;;7.40;;
31298;SDS011;17927;52.350;13.402;2023-07-20T05:33:03;7.45;;;6.75;;
31298;SDS011;17927;52.350;13.402;2023-07-20T05:35:28;8.07;;;6.82;;
31298;SDS011;17927;52.350;13.402;2023-07-20T05:37:53;7.45;;;6.93;;
31298;SDS011;17927;52.350;13.402;2023-07-20T05:40:19;7.32;;;6.65;;
31298;SDS011;17927;52.350;13.402;2023-07-20T05:42:45;7.68;;;6.97;;
31298;SDS011;17927;52.350;13.402;2023-07-20T05:45:11;7.53;;;6.93;;
31298;SDS011;17927;52.350;13.402;2023-07-20T05:47:37;6.53;;;5.95;;
31298;SDS011;17927;52.350;13.402;2023-07-20T05:50:02;6.72;;;6.32;;
31298;SDS011;17927;52.350;13.402;2023-07-20T05:52:28;6.88;;;6.22;;
31298;SDS011;17927;52.350;13.402;2023-07-20T05:54:53;14.23;;;5.90;;
31298;SDS011;17927;52.350;13.402;2023-07-20T05:57:19;5.70;;;5.30;;
31298;SDS011;17927;52.350;13.402;2023-07-20T05:59:44;7.40;;;5.85;;
31298;SDS011;17927;52.350;13.402;2023-07-20T06:02:10;5.50;;;5.10;;
31298;SDS011;17927;52.350;13.402;2023-07-20T06:04:36;5.50;;;4.82;;
31298;SDS011;17927;52.350;13.402;2023-07-20T06:07:01;8.32;;;5.15;;
31298;SDS011;17927;52.350;13.402;2023-07-20T06:09:26;5.28;;;4.82;;
31298;SDS011;17927;52.350;13.402;2023-07-20T06:11:52;6.22;;;5.75;;
31298;SDS011;17927;52.350;13.402;2023-07-20T06:14:17;10.10;;;4.82;;
31298;SDS011;17927;52.350;13.402;2023-07-20T06:16:43;5.60;;;5.13;;
31298;SDS011;17927;52.350;13.402;2023-07-20T06:19:08;4.97;;;4.57;;
31298;SDS011;17927;52.350;13.402;2023-07-20T06:21:36;5.05;;;4.75;;
31298;SDS011;17927;52.350;13.402;2023-07-20T06:24:01;5.05;;;4.65;;
31298;SDS011;17927;52.350;13.402;2023-07-20T06:26:26;5.50;;;5.10;;
31298;SDS011;17927;52.350;13.402;2023-07-20T06:28:51;9.55;;;5.63;;
31298;SDS011;17927;52.350;13.402;2023-07-20T06:31:17;5.43;;;4.65;;
31298;SDS011;17927;52.350;13.402;2023-07-20T06:33:42;4.47;;;4.28;;
31298;SDS011;17927;52.350;13.402;2023-07-20T06:36:07;4.90;;;4.60;;
31298;SDS011;17927;52.350;13.402;2023-07-20T06:38:32;5.43;;;4.43;;
31298;SDS011;17927;52.350;13.402;2023-07-20T06:40:58;4.82;;;4.43;;
31298;SDS011;17927;52.350;13.402;2023-07-20T06:43:23;5.75;;;3.88;;
31298;SDS011;17927;52.350;13.402;2023-07-20T06:45:52;8.30;;;4.20;;
31298;SDS011;17927;52.350;13.402;2023-07-20T06:48:18;5.65;;;3.58;;
31298;SDS011;17927;52.350;13.402;2023-07-20T06:50:44;3.88;;;3.67;;
31298;SDS011;17927;52.350;13.402;2023-07-20T06:53:09;4.60;;;4.20;;
31298;SDS011;17927;52.350;13.402;2023-07-20T06:55:34;5.00;;;3.72;;
31298;SDS011;17927;52.350;13.402;2023-07-20T06:57:59;6.13;;;3.63;;
31298;SDS011;17927;52.350;13.402;2023-07-20T07:00:25;5.18;;;3.13;;
31298;SDS011;17927;52.350;13.402;2023-07-20T07:02:50;3.20;;;2.65;;
31298;SDS011;17927;52.350;13.402;2023-07-20T07:05:15;2.78;;;2.28;;
31298;SDS011;17927;52.350;13.402;2023-07-20T07:07:41;4.13;;;2.20;;
31298;SDS011;17927;52.350;13.402;2023-07-20T07:10:06;2.75;;;2.30;;
31298;SDS011;17927;52.350;13.402;2023-07-20T07:12:32;2.75;;;1.98;;
31298;SDS011;17927;52.350;13.402;2023-07-20T07:14:57;3.90;;;1.83;;
31298;SDS011;17927;52.350;13.402;2023-07-20T07:17:23;1.50;;;1.40;;
31298;SDS011;17927;52.350;13.402;2023-07-20T07:19:48;5.22;;;2.10;;
31298;SDS011;17927;52.350;13.402;2023-07-20T07:22:13;3.03;;;2.40;;
31298;SDS011;17927;52.350;13.402;2023-07-20T07:24:39;6.22;;;2.15;;
31298;SDS011;17927;52.350;13.402;2023-07-20T07:27:06;1.45;;;1.38;;
31298;SDS011;17927;52.350;13.402;2023-07-20T07:29:32;1.50;;;1.38;;
31298;SDS011;17927;52.350;13.402;2023-07-20T07:31:57;6.65;;;1.20;;
31298;SDS011;17927;52.350;13.402;2023-07-20T07:34:23;2.65;;;1.45;;
31298;SDS011;17927;52.350;13.402;2023-07-20T07:36:48;1.40;;;1.20;;
31298;SDS011;17927;52.350;13.402;2023-07-20T07:39:14;3.47;;;1.20;;
31298;SDS011;17927;52.350;13.402;2023-07-20T07:41:39;1.27;;;1.17;;
31298;SDS011;17927;52.350;13.402;2023-07-20T07:44:04;3.42;;;1.75;;
31298;SDS011;17927;52.350;13.402;2023-07-20T07:46:30;1.00;;;0.82;;
31298;SDS011;17927;52.350;13.402;2023-07-20T07:48:55;0.70;;;0.70;;
31298;SDS011;17927;52.350;13.402;2023-07-20T07:51:20;0.82;;;0.77;;
31298;SDS011;17927;52.350;13.402;2023-07-20T07:53:46;2.15;;;0.80;;
31298;SDS011;17927;52.350;13.402;2023-07-20T07:56:11;1.17;;;0.60;;
31298;SDS011;17927;52.350;13.402;2023-07-20T07:58:37;2.60;;;0.75;;
31298;SDS011;17927;52.350;13.402;2023-07-20T08:01:02;0.98;;;0.52;;
31298;SDS011;17927;52.350;13.402;2023-07-20T08:03:27;1.45;;;0.43;;
31298;SDS011;17927;52.350;13.402;2023-07-20T08:05:56;1.05;;;0.70;;
31298;SDS011;17927;52.350;13.402;2023-07-20T08:08:22;0.57;;;0.57;;
31298;SDS011;17927;52.350;13.402;2023-07-20T08:10:48;2.15;;;0.60;;
31298;SDS011;17927;52.350;13.402;2023-07-20T08:13:13;0.57;;;0.57;;
31298;SDS011;17927;52.350;13.402;2023-07-20T08:15:39;1.10;;;0.80;;
31298;SDS011;17927;52.350;13.402;2023-07-20T08:18:04;2.50;;;0.73;;
31298;SDS011;17927;52.350;13.402;2023-07-20T08:20:30;1.23;;;0.45;;
31298;SDS011;17927;52.350;13.402;2023-07-20T08:22:57;2.75;;;0.40;;
31298;SDS011;17927;52.350;13.402;2023-07-20T08:25:24;0.88;;;0.60;;
31298;SDS011;17927;52.350;13.402;2023-07-20T08:27:50;2.58;;;0.40;;
31298;SDS011;17927;52.350;13.402;2023-07-20T08:30:15;5.68;;;0.40;;
31298;SDS011;17927;52.350;13.402;2023-07-20T08:32:40;0.40;;;0.40;;
31298;SDS011;17927;52.350;13.402;2023-07-20T08:35:06;0.57;;;0.45;;
31298;SDS011;17927;52.350;13.402;2023-07-20T08:37:31;1.77;;;0.73;;
31298;SDS011;17927;52.350;13.402;2023-07-20T08:39:56;8.10;;;0.80;;
31298;SDS011;17927;52.350;13.402;2023-07-20T08:42:22;0.73;;;0.68;;
31298;SDS011;17927;52.350;13.402;2023-07-20T08:44:47;1.08;;;0.68;;
31298;SDS011;17927;52.350;13.402;2023-07-20T08:47:13;0.63;;;0.45;;
31298;SDS011;17927;52.350;13.402;2023-07-20T08:49:41;1.17;;;0.73;;
31298;SDS011;17927;52.350;13.402;2023-07-20T08:52:06;0.40;;;0.40;;
31298;SDS011;17927;52.350;13.402;2023-07-20T08:54:34;1.25;;;0.52;;
31298;SDS011;17927;52.350;13.402;2023-07-20T08:57:03;0.40;;;0.40;;
31298;SDS011;17927;52.350;13.402;2023-07-20T08:59:30;0.50;;;0.50;;
31298;SDS011;17927;52.350;13.402;2023-07-20T09:01:56;2.25;;;0.90;;
31298;SDS011;17927;52.350;13.402;2023-07-20T09:04:22;1.20;;;0.52;;
31298;SDS011;17927;52.350;13.402;2023-07-20T09:06:49;2.47;;;0.47;;
31298;SDS011;17927;52.350;13.402;2023-07-20T09:09:14;0.60;;;0.50;;
31298;SDS011;17927;52.350;13.402;2023-07-20T09:11:40;0.77;;;0.40;;
31298;SDS011;17927;52.350;13.402;2023-07-20T09:14:05;0.57;;;0.57;;
31298;SDS011;17927;52.350;13.402;2023-07-20T09:16:31;0.85;;;0.50;;
31298;SDS011;17927;52.350;13.402;2023-07-20T09:19:00;0.68;;;0.50;;
31298;SDS011;17927;52.350;13.402;2023-07-20T09:21:28;3.70;;;0.30;;
31298;SDS011;17927;52.350;13.402;2023-07-20T09:23:56;0.40;;;0.40;;
31298;SDS011;17927;52.350;13.402;2023-07-20T09:26:21;0.43;;;0.43;;
31298;SDS011;17927;52.350;13.402;2023-07-20T09:28:48;0.47;;;0.47;;
31298;SDS011;17927;52.350;13.402;2023-07-20T09:31:15;0.50;;;0.50;;
31298;SDS011;17927;52.350;13.402;2023-07-20T09:33:44;0.77;;;0.70;;
31298;SDS011;17927;52.350;13.402;2023-07-20T09:36:10;0.57;;;0.50;;
31298;SDS011;17927;52.350;13.402;2023-07-20T09:38:38;0.65;;;0.50;;
31298;SDS011;17927;52.350;13.402;2023-07-20T09:41:05;0.50;;;0.50;;
31298;SDS011;17927;52.350;13.402;2023-07-20T09:43:30;2.05;;;0.52;;
31298;SDS011;17927;52.350;13.402;2023-07-20T09:45:57;0.60;;;0.40;;
31298;SDS011;17927;52.350;13.402;2023-07-20T09:48:23;0.47;;;0.47;;
31298;SDS011;17927;52.350;13.402;2023-07-20T09:50:49;0.55;;;0.50;;
31298;SDS011;17927;52.350;13.402;2023-07-20T09:53:18;0.93;;;0.80;;
31298;SDS011;17927;52.350;13.402;2023-07-20T09:55:44;5.35;;;0.57;;
31298;SDS011;17927;52.350;13.402;2023-07-20T09:58:10;0.55;;;0.55;;
31298;SDS011;17927;52.350;13.402;2023-07-20T10:00:36;0.40;;;0.30;;
31298;SDS011;17927;52.350;13.402;2023-07-20T10:03:03;0.65;;;0.38;;
31298;SDS011;17927;52.350;13.402;2023-07-20T10:05:32;0.30;;;0.30;;
31298;SDS011;17927;52.350;13.402;2023-07-20T10:07:59;0.65;;;0.40;;
31298;SDS011;17927;52.350;13.402;2023-07-20T10:10:26;3.75;;;0.35;;
31298;SDS011;17927;52.350;13.402;2023-07-20T10:12:52;2.95;;;0.40;;
31298;SDS011;17927;52.350;13.402;2023-07-20T10:15:19;0.40;;;0.40;;
31298;SDS011;17927;52.350;13.402;2023-07-20T10:18:05;1.20;;;0.30;;
31298;SDS011;17927;52.350;13.402;2023-07-20T10:20:35;1.42;;;0.40;;
31298;SDS011;17927;52.350;13.402;2023-07-20T10:23:03;0.95;;;0.30;;
31298;SDS011;17927;52.350;13.402;2023-07-20T10:25:30;0.57;;;0.30;;
31298;SDS011;17927;52.350;13.402;2023-07-20T10:27:56;2.55;;;0.30;;
31298;SDS011;17927;52.350;13.402;2023-07-20T10:30:22;0.30;;;0.30;;
31298;SDS011;17927;52.350;13.402;2023-07-20T10:32:47;1.55;;;0.32;;
31298;SDS011;17927;52.350;13.402;2023-07-20T10:35:14;0.73;;;0.30;;
31298;SDS011;17927;52.350;13.402;2023-07-20T10:40:25;0.57;;;0.55;;
31298;SDS011;17927;52.350;13.402;2023-07-20T10:43:07;3.60;;;0.30;;
31298;SDS011;17927;52.350;13.402;2023-07-20T10:48:24;0.45;;;0.45;;
31298;SDS011;17927;52.350;13.402;2023-07-20T10:53:38;0.20;;;0.20;;
31298;SDS011;17927;52.350;13.402;2023-07-20T10:56:07;2.80;;;0.20;;
31298;SDS011;17927;52.350;13.402;2023-07-20T10:58:40;0.10;;;0.10;;
31298;SDS011;17927;52.350;13.402;2023-07-20T11:01:06;0.32;;;0.30;;
31298;SDS011;17927;52.350;13.402;2023-07-20T11:03:35;0.25;;;0.25;;
31298;SDS011;17927;52.350;13.402;2023-07-20T11:08:49;0.63;;;0.30;;
31298;SDS011;17927;52.350;13.402;2023-07-20T11:11:24;0.40;;;0.40;;
31298;SDS011;17927;52.350;13.402;2023-07-20T11:13:53;0.30;;;0.20;;
31298;SDS011;17927;52.350;13.402;2023-07-20T11:16:27;1.77;;;0.30;;
31298;SDS011;17927;52.350;13.402;2023-07-20T11:18:57;0.20;;;0.20;;
31298;SDS011;17927;52.350;13.402;2023-07-20T11:21:24;1.65;;;0.20;;
31298;SDS011;17927;52.350;13.402;2023-07-20T11:23:49;3.33;;;0.30;;
31298;SDS011;17927;52.350;13.402;2023-07-20T11:26:16;0.65;;;0.40;;
31298;SDS011;17927;52.350;13.402;2023-07-20T11:28:44;0.40;;;0.40;;
31298;SDS011;17927;52.350;13.402;2023-07-20T11:31:14;0.23;;;0.23;;
31298;SDS011;17927;52.350;13.402;2023-07-20T11:33:41;0.45;;;0.40;;
31298;SDS011;17927;52.350;13.402;2023-07-20T11:36:08;0.30;;;0.30;;
31298;SDS011;17927;52.350;13.402;2023-07-20T11:38:33;0.20;;;0.20;;
31298;SDS011;17927;52.350;13.402;2023-07-20T11:40:59;4.10;;;0.43;;
31298;SDS011;17927;52.350;13.402;2023-07-20T11:43:24;0.38;;;0.35;;
31298;SDS011;17927;52.350;13.402;2023-07-20T11:45:51;1.35;;;0.60;;
31298;SDS011;17927;52.350;13.402;2023-07-20T11:48:16;1.38;;;0.40;;
31298;SDS011;17927;52.350;13.402;2023-07-20T11:50:42;0.40;;;0.40;;
31298;SDS011;17927;52.350;13.402;2023-07-20T11:53:07;0.50;;;0.45;;
31298;SDS011;17927;52.350;13.402;2023-07-20T11:55:33;0.38;;;0.38;;
31298;SDS011;17927;52.350;13.402;2023-07-20T11:58:05;1.30;;;0.40;;
31298;SDS011;17927;52.350;13.402;2023-07-20T12:00:31;0.40;;;0.40;;
31298;SDS011;17927;52.350;13.402;2023-07-20T12:02:57;13.45;;;0.88;;
31298;SDS011;17927;52.350;13.402;2023-07-20T12:05:23;0.40;;;0.40;;
31298;SDS011;17927;52.350;13.402;2023-07-20T12:07:49;3.05;;;0.50;;
31298;SDS011;17927;52.350;13.402;2023-07-20T12:10:15;1.67;;;0.57;;
31298;SDS011;17927;52.350;13.402;2023-07-20T12:12:41;0.40;;;0.40;;
31298;SDS011;17927;52.350;13.402;2023-07-20T12:15:19;0.40;;;0.40;;
31298;SDS011;17927;52.350;13.402;2023-07-20T12:20:25;4.22;;;0.80;;
31298;SDS011;17927;52.350;13.402;2023-07-20T12:22:51;0.50;;;0.50;;
31298;SDS011;17927;52.350;13.402;2023-07-20T12:25:17;1.02;;;0.75;;
31298;SDS011;17927;52.350;13.402;2023-07-20T12:27:44;0.93;;;0.30;;
31298;SDS011;17927;52.350;13.402;2023-07-20T12:30:10;4.03;;;1.50;;
31298;SDS011;17927;52.350;13.402;2023-07-20T12:32:35;2.38;;;0.50;;
31298;SDS011;17927;52.350;13.402;2023-07-20T12:35:00;0.20;;;0.20;;
31298;SDS011;17927;52.350;13.402;2023-07-20T12:37:26;0.43;;;0.32;;
31298;SDS011;17927;52.350;13.402;2023-07-20T12:39:52;1.08;;;0.60;;
31298;SDS011;17927;52.350;13.402;2023-07-20T12:42:17;0.82;;;0.40;;
31298;SDS011;17927;52.350;13.402;2023-07-20T12:44:43;0.47;;;0.47;;
31298;SDS011;17927;52.350;13.402;2023-07-20T12:47:08;2.92;;;0.70;;
31298;SDS011;17927;52.350;13.402;2023-07-20T12:49:33;3.70;;;0.68;;
31298;SDS011;17927;52.350;13.402;2023-07-20T12:51:59;0.70;;;0.70;;
31298;SDS011;17927;52.350;13.402;2023-07-20T12:54:24;0.57;;;0.30;;
31298;SDS011;17927;52.350;13.402;2023-07-20T12:56:49;0.68;;;0.63;;
31298;SDS011;17927;52.350;13.402;2023-07-20T12:59:14;0.20;;;0.20;;
31298;SDS011;17927;52.350;13.402;2023-07-20T13:01:40;0.43;;;0.40;;
31298;SDS011;17927;52.350;13.402;2023-07-20T13:04:06;0.45;;;0.45;;
31298;SDS011;17927;52.350;13.402;2023-07-20T13:06:33;0.68;;;0.38;;
31298;SDS011;17927;52.350;13.402;2023-07-20T13:08:59;0.30;;;0.20;;
31298;SDS011;17927;52.350;13.402;2023-07-20T13:11:24;0.28;;;0.28;;
31298;SDS011;17927;52.350;13.402;2023-07-20T13:13:50;0.57;;;0.40;;
31298;SDS011;17927;52.350;13.402;2023-07-20T13:16:15;0.30;;;0.30;;
31298;SDS011;17927;52.350;13.402;2023-07-20T13:18:41;0.28;;;0.20;;
31298;SDS011;17927;52.350;13.402;2023-07-20T13:21:06;0.30;;;0.30;;
31298;SDS011;17927;52.350;13.402;2023-07-20T13:23:35;2.35;;;0.63;;
31298;SDS011;17927;52.350;13.402;2023-07-20T13:26:01;0.30;;;0.30;;
31298;SDS011;17927;52.350;13.402;2023-07-20T13:28:26;0.90;;;0.30;;
31298;SDS011;17927;52.350;13.402;2023-07-20T13:30:51;0.20;;;0.20;;
31298;SDS011;17927;52.350;13.402;2023-07-20T13:33:17;0.20;;;0.20;;
31298;SDS011;17927;52.350;13.402;2023-07-20T13:35:42;4.22;;;0.28;;
31298;SDS011;17927;52.350;13.402;2023-07-20T13:38:07;2.20;;;0.30;;
31298;SDS011;17927;52.350;13.402;2023-07-20T13:40:33;0.53;;;0.53;;
31298;SDS011;17927;52.350;13.402;2023-07-20T13:42:58;1.00;;;0.38;;
31298;SDS011;17927;52.350;13.402;2023-07-20T13:45:23;0.27;;;0.27;;
31298;SDS011;17927;52.350;13.402;2023-07-20T13:47:48;0.32;;;0.32;;
31298;SDS011;17927;52.350;13.402;2023-07-20T13:50:14;0.20;;;0.20;;
31298;SDS011;17927;52.350;13.402;2023-07-20T13:52:39;0.30;;;0.30;;
31298;SDS011;17927;52.350;13.402;2023-07-20T13:55:05;0.32;;;0.30;;
31298;SDS011;17927;52.350;13.402;2023-07-20T13:57:31;0.28;;;0.28;;
31298;SDS011;17927;52.350;13.402;2023-07-20T13:59:57;1.70;;;0.40;;
31298;SDS011;17927;52.350;13.402;2023-07-20T14:02:22;1.40;;;0.20;;
31298;SDS011;17927;52.350;13.402;2023-07-20T14:04:47;0.25;;;0.20;;
31298;SDS011;17927;52.350;13.402;2023-07-20T14:07:13;0.25;;;0.20;;
31298;SDS011;17927;52.350;13.402;2023-07-20T14:09:38;0.35;;;0.35;;
31298;SDS011;17927;52.350;13.402;2023-07-20T14:12:04;0.30;;;0.30;;
31298;SDS011;17927;52.350;13.402;2023-07-20T14:14:29;0.43;;;0.43;;
31298;SDS011;17927;52.350;13.402;2023-07-20T14:16:54;8.10;;;0.40;;
31298;SDS011;17927;52.350;13.402;2023-07-20T14:19:21;1.00;;;0.40;;
31298;SDS011;17927;52.350;13.402;2023-07-20T14:21:46;0.30;;;0.30;;
31298;SDS011;17927;52.350;13.402;2023-07-20T14:24:12;0.75;;;0.50;;
31298;SDS011;17927;52.350;13.402;2023-07-20T14:26:37;10.60;;;0.60;;
31298;SDS011;17927;52.350;13.402;2023-07-20T14:29:02;20.23;;;0.70;;
31298;SDS011;17927;52.350;13.402;2023-07-20T14:31:27;1.43;;;0.60;;
31298;SDS011;17927;52.350;13.402;2023-07-20T14:33:53;2.00;;;0.40;;
31298;SDS011;17927;52.350;13.402;2023-07-20T14:36:18;0.20;;;0.20;;
31298;SDS011;17927;52.350;13.402;2023-07-20T14:38:43;0.50;;;0.50;;
31298;SDS011;17927;52.350;13.402;2023-07-20T14:41:08;0.47;;;0.22;;
31298;SDS011;17927;52.350;13.402;2023-07-20T14:43:34;0.65;;;0.60;;
31298;SDS011;17927;52.350;13.402;2023-07-20T14:45:59;0.35;;;0.20;;
31298;SDS011;17927;52.350;13.402;2023-07-20T14:48:24;0.38;;;0.20;;
31298;SDS011;17927;52.350;13.402;2023-07-20T14:50:50;0.20;;;0.20;;